createdAt,value
2024-03-08T00:01:48.173Z,5.80
2024-03-08T00:04:17.919Z,5.90
2024-03-08T00:06:47.336Z,5.10
2024-03-08T00:09:16.949Z,5.90
2024-03-08T00:11:45.578Z,5.90
2024-03-08T00:14:14.061Z,5.90
2024-03-08T00:16:44.882Z,5.90
2024-03-08T00:19:13.353Z,6.80
2024-03-08T00:21:43.437Z,5.90
2024-03-08T00:24:11.937Z,5.90
2024-03-08T00:26:40.527Z,5.90
2024-03-08T00:29:08.988Z,5.90
2024-03-08T00:31:37.427Z,5.90
2024-03-08T00:34:05.784Z,5.90
2024-03-08T00:36:34.322Z,5.90
2024-03-08T00:39:07.459Z,5.90
2024-03-08T00:41:36.190Z,7.20
2024-03-08T00:44:05.910Z,6.00
2024-03-08T00:46:35.386Z,5.90
2024-03-08T00:49:03.844Z,6.00
2024-03-08T00:51:32.287Z,6.00
2024-03-08T00:54:00.852Z,5.90
2024-03-08T00:56:30.688Z,5.90
2024-03-08T00:58:59.087Z,5.90
2024-03-08T01:01:28.431Z,5.90
2024-03-08T01:03:58.212Z,6.00
2024-03-08T01:06:26.649Z,5.90
2024-03-08T01:08:55.061Z,5.90
2024-03-08T01:11:23.612Z,5.80
2024-03-08T01:13:54.656Z,5.80
2024-03-08T01:16:23.793Z,5.90
2024-03-08T01:18:52.413Z,5.90
2024-03-08T01:21:21.163Z,5.90
2024-03-08T01:23:49.772Z,5.80
2024-03-08T01:26:18.220Z,5.80
2024-03-08T01:28:46.742Z,5.80
2024-03-08T01:31:17.278Z,5.80
2024-03-08T01:33:45.804Z,5.90
2024-03-08T01:36:16.654Z,5.80
2024-03-08T01:38:45.291Z,5.80
2024-03-08T01:41:14.722Z,5.80
2024-03-08T01:43:43.103Z,5.70
2024-03-08T01:46:13.870Z,5.80
2024-03-08T01:48:44.000Z,5.80
2024-03-08T01:51:13.206Z,5.80
2024-03-08T01:53:43.431Z,5.80
2024-03-08T01:56:14.054Z,5.80
2024-03-08T01:58:44.389Z,5.70
2024-03-08T02:01:16.191Z,5.70
2024-03-08T02:03:47.594Z,5.70
2024-03-08T02:06:17.659Z,5.70
2024-03-08T02:08:47.277Z,5.70
2024-03-08T02:11:17.375Z,5.70
2024-03-08T02:13:45.769Z,5.70
2024-03-08T02:16:14.283Z,5.70
2024-03-08T02:18:43.457Z,5.70
2024-03-08T02:21:13.455Z,5.60
2024-03-08T02:23:42.922Z,5.70
2024-03-08T02:26:11.425Z,5.70
2024-03-08T02:28:39.980Z,5.70
2024-03-08T02:31:09.393Z,5.80
2024-03-08T02:33:37.880Z,5.80
2024-03-08T02:36:07.843Z,5.70
2024-03-08T02:38:37.806Z,5.70
2024-03-08T02:41:07.241Z,5.80
2024-03-08T02:43:35.963Z,5.70
2024-03-08T02:46:04.669Z,5.70
2024-03-08T02:48:33.287Z,5.70
2024-03-08T02:51:03.295Z,5.80
2024-03-08T02:53:31.890Z,5.80
2024-03-08T02:56:02.021Z,5.70
2024-03-08T02:58:30.505Z,5.70
2024-03-08T03:00:58.998Z,5.70
2024-03-08T03:03:28.205Z,5.70
2024-03-08T03:05:57.630Z,5.60
2024-03-08T03:08:26.399Z,5.70
2024-03-08T03:10:58.034Z,5.80
2024-03-08T03:13:30.824Z,5.60
2024-03-08T03:15:59.597Z,5.70
2024-03-08T03:18:28.815Z,5.70
2024-03-08T03:20:57.551Z,5.70
2024-03-08T03:23:27.727Z,5.70
2024-03-08T03:25:58.618Z,5.70
2024-03-08T03:28:29.703Z,5.80
2024-03-08T03:31:00.041Z,5.70
2024-03-08T03:33:28.715Z,5.70
2024-03-08T03:35:57.332Z,6.00
2024-03-08T03:38:27.347Z,5.70
2024-03-08T03:40:58.638Z,5.70
2024-03-08T03:43:28.720Z,5.70
2024-03-08T03:45:57.684Z,5.10
2024-03-08T03:48:26.180Z,5.70
2024-03-08T03:50:54.937Z,5.60
2024-03-08T03:53:23.411Z,5.70
2024-03-08T03:55:51.794Z,5.70
2024-03-08T03:58:23.680Z,5.70
2024-03-08T04:00:54.881Z,5.70
2024-03-08T04:03:25.923Z,5.60
2024-03-08T04:05:56.989Z,5.60
2024-03-08T04:08:39.510Z,5.60
2024-03-08T04:11:13.248Z,5.70
2024-03-08T04:13:52.370Z,5.70
2024-03-08T04:16:22.675Z,5.60
2024-03-08T04:18:52.017Z,5.70
2024-03-08T04:21:21.342Z,5.60
2024-03-08T04:23:50.997Z,5.60
2024-03-08T04:26:20.423Z,5.60
2024-03-08T04:28:50.212Z,5.60
2024-03-08T04:31:18.969Z,5.70
2024-03-08T04:33:49.525Z,5.70
2024-03-08T04:36:18.299Z,5.60
2024-03-08T04:38:48.838Z,6.80
2024-03-08T04:41:19.096Z,5.60
2024-03-08T04:43:48.001Z,5.60
2024-03-08T04:46:17.611Z,4.70
2024-03-08T04:48:49.939Z,5.70
2024-03-08T04:51:23.867Z,5.60
2024-03-08T04:53:53.038Z,5.50
2024-03-08T04:56:22.017Z,5.50
2024-03-08T04:58:52.665Z,5.50
2024-03-08T05:01:24.970Z,5.50
2024-03-08T05:04:03.335Z,5.60
2024-03-08T05:06:37.838Z,5.60
2024-03-08T05:09:15.233Z,5.60
2024-03-08T05:11:45.284Z,5.60
2024-03-08T05:14:18.130Z,5.50
2024-03-08T05:16:50.174Z,5.50
2024-03-08T05:19:23.113Z,5.50
2024-03-08T05:21:52.653Z,5.60
2024-03-08T05:24:21.830Z,5.60
2024-03-08T05:26:54.664Z,5.70
2024-03-08T05:29:25.766Z,5.70
2024-03-08T05:31:55.562Z,5.70
2024-03-08T05:34:43.320Z,5.90
2024-03-08T05:37:18.557Z,5.70
2024-03-08T05:39:48.045Z,5.60
2024-03-08T05:42:17.085Z,5.50
2024-03-08T05:44:45.482Z,5.50
2024-03-08T05:47:17.377Z,5.50
2024-03-08T05:49:57.834Z,5.50
2024-03-08T05:52:27.604Z,5.50
2024-03-08T05:55:16.861Z,5.50
2024-03-08T05:57:45.464Z,5.50
2024-03-08T06:00:17.423Z,5.50
2024-03-08T06:02:46.394Z,5.50
2024-03-08T06:05:18.172Z,5.50
2024-03-08T06:07:46.657Z,5.60
2024-03-08T06:10:21.814Z,5.50
2024-03-08T06:19:57.742Z,5.50
2024-03-08T06:28:09.922Z,5.50
2024-03-08T06:30:56.180Z,5.60
2024-03-08T06:33:28.570Z,5.50
2024-03-08T06:35:58.959Z,5.60
2024-03-08T06:38:37.949Z,5.60
2024-03-08T06:41:11.340Z,5.60
2024-03-08T06:43:52.097Z,5.50
2024-03-08T06:46:22.743Z,5.60
2024-03-08T06:48:57.597Z,5.50
2024-03-08T06:51:30.132Z,5.90
2024-03-08T06:54:00.241Z,5.50
2024-03-08T06:56:39.788Z,5.60
2024-03-08T06:59:16.806Z,5.60
2024-03-08T07:01:46.873Z,5.50
2024-03-08T07:04:27.973Z,5.50
2024-03-08T07:07:00.967Z,5.50
2024-03-08T07:09:39.281Z,5.60
2024-03-08T07:12:12.653Z,5.70
2024-03-08T07:15:06.402Z,5.60
2024-03-08T07:17:38.953Z,5.60
2024-03-08T07:20:14.028Z,5.70
2024-03-08T07:22:49.244Z,5.70
2024-03-08T07:25:32.646Z,5.70
2024-03-08T07:28:05.241Z,5.70
2024-03-08T07:31:10.678Z,5.70
2024-03-08T07:33:39.991Z,5.70
2024-03-08T07:36:23.732Z,5.70
2024-03-08T07:38:52.290Z,5.80
2024-03-08T07:41:21.432Z,5.80
2024-03-08T07:43:51.514Z,5.90
2024-03-08T07:46:25.325Z,5.90
2024-03-08T07:48:54.423Z,5.90
2024-03-08T07:51:24.539Z,5.90
2024-03-08T07:53:53.991Z,5.90
2024-03-08T07:56:25.134Z,5.90
2024-03-08T07:58:56.490Z,5.90
2024-03-08T08:01:27.686Z,6.10
2024-03-08T08:04:14.820Z,6.20
2024-03-08T08:06:43.751Z,6.30
2024-03-08T08:09:15.632Z,6.40
2024-03-08T08:11:45.039Z,6.30
2024-03-08T08:14:14.125Z,6.40
2024-03-08T08:16:46.933Z,6.60
2024-03-08T08:19:17.377Z,6.80
2024-03-08T08:21:45.938Z,6.80
2024-03-08T08:24:22.405Z,6.90
2024-03-08T08:26:51.217Z,7.00
2024-03-08T08:29:19.745Z,6.90
2024-03-08T08:31:52.057Z,6.90
2024-03-08T08:34:23.220Z,7.00
2024-03-08T08:36:55.706Z,7.20
2024-03-08T08:39:24.301Z,7.30
2024-03-08T08:41:56.041Z,7.20
2024-03-08T08:44:27.340Z,7.20
2024-03-08T08:47:02.708Z,7.10
2024-03-08T08:49:37.410Z,7.10
2024-03-08T08:52:15.588Z,7.10
2024-03-08T08:54:49.040Z,7.20
2024-03-08T08:57:18.912Z,7.20
2024-03-08T08:59:51.742Z,7.30
2024-03-08T09:02:22.413Z,7.40
2024-03-08T09:04:54.289Z,7.40
2024-03-08T09:07:28.258Z,7.30
2024-03-08T09:10:00.240Z,7.30
2024-03-08T09:12:29.085Z,7.30
2024-03-08T09:15:00.769Z,7.20
2024-03-08T09:17:31.632Z,7.20
2024-03-08T09:20:01.031Z,7.30
2024-03-08T09:22:29.780Z,7.30
2024-03-08T09:24:58.714Z,7.30
2024-03-08T09:27:27.163Z,7.30
2024-03-08T09:29:56.132Z,7.40
2024-03-08T09:32:29.875Z,7.50
2024-03-08T09:34:59.733Z,7.50
2024-03-08T09:37:28.858Z,7.40
2024-03-08T09:39:57.269Z,7.40
2024-03-08T09:42:25.876Z,7.30
2024-03-08T09:44:54.908Z,7.30
2024-03-08T09:47:32.964Z,7.30
2024-03-08T09:50:03.387Z,7.20
2024-03-08T09:52:34.040Z,7.20
2024-03-08T09:55:04.025Z,7.30
2024-03-08T09:57:39.294Z,7.30
2024-03-08T10:00:24.312Z,7.20
2024-03-08T10:02:55.840Z,7.20
2024-03-08T10:05:26.360Z,7.20
2024-03-08T10:07:56.318Z,7.20
2024-03-08T10:10:24.834Z,7.20
2024-03-08T10:12:56.439Z,7.20
2024-03-08T10:15:25.549Z,7.20
2024-03-08T10:17:57.672Z,7.20
2024-03-08T10:20:35.651Z,7.30
2024-03-08T10:23:11.580Z,7.40
2024-03-08T10:25:43.650Z,7.30
2024-03-08T10:28:12.263Z,7.40
2024-03-08T10:30:40.853Z,7.40
2024-03-08T10:33:09.471Z,7.40
2024-03-08T10:35:39.378Z,7.40
2024-03-08T10:38:11.524Z,7.40
2024-03-08T10:40:42.739Z,7.40
2024-03-08T10:43:21.532Z,7.50
2024-03-08T10:45:50.487Z,7.50
2024-03-08T10:48:36.008Z,7.50
2024-03-08T10:51:12.406Z,7.50
2024-03-08T10:53:42.889Z,7.60
2024-03-08T10:56:12.001Z,7.60
2024-03-08T10:58:41.058Z,7.70
2024-03-08T11:01:11.598Z,7.90
2024-03-08T11:03:47.780Z,8.20
2024-03-08T11:06:24.474Z,8.30
2024-03-08T11:08:53.870Z,8.50
2024-03-08T11:11:34.549Z,8.60
2024-03-08T11:14:05.993Z,8.60
2024-03-08T11:16:45.368Z,8.70
2024-03-08T11:19:32.856Z,8.70
2024-03-08T11:22:04.228Z,8.50
2024-03-08T11:24:43.178Z,8.50
2024-03-08T11:27:13.427Z,8.50
2024-03-08T11:29:42.138Z,8.40
2024-03-08T11:32:10.951Z,8.30
2024-03-08T11:34:39.691Z,8.30
2024-03-08T11:37:16.273Z,8.30
2024-03-08T11:39:50.541Z,8.40
2024-03-08T11:42:19.417Z,8.30
2024-03-08T11:44:49.208Z,8.40
2024-03-08T11:47:18.708Z,8.40
2024-03-08T11:49:49.548Z,8.50
2024-03-08T11:52:20.895Z,8.60
2024-03-08T11:54:59.011Z,8.60
2024-03-08T11:57:29.805Z,8.60
2024-03-08T11:59:59.664Z,8.60
2024-03-08T12:02:29.047Z,8.60
2024-03-08T12:05:02.340Z,8.50
2024-03-08T12:07:33.511Z,8.40
2024-03-08T12:10:19.732Z,8.40
2024-03-08T12:12:49.319Z,8.40
2024-03-08T12:15:19.239Z,8.50
2024-03-08T12:17:49.594Z,8.50
2024-03-08T12:20:19.531Z,8.50
2024-03-08T12:22:49.977Z,8.60
2024-03-08T12:25:18.549Z,8.50
2024-03-08T12:27:47.036Z,8.50
2024-03-08T12:30:23.503Z,8.40
2024-03-08T12:32:55.536Z,8.40
2024-03-08T12:35:24.409Z,8.30
2024-03-08T12:37:55.906Z,8.20
2024-03-08T12:40:33.179Z,8.20
2024-03-08T12:43:02.252Z,8.20
2024-03-08T12:45:30.819Z,8.20
2024-03-08T12:48:00.306Z,8.20
2024-03-08T12:50:31.385Z,8.20
2024-03-08T12:53:01.328Z,8.20
2024-03-08T12:55:29.853Z,8.20
2024-03-08T12:57:59.903Z,8.10
2024-03-08T13:00:29.360Z,8.10
2024-03-08T13:02:57.732Z,8.10
2024-03-08T13:05:27.160Z,8.10
2024-03-08T13:07:56.172Z,8.10
2024-03-08T13:10:26.046Z,8.10
2024-03-08T13:12:55.837Z,8.10
2024-03-08T13:15:24.888Z,8.10
2024-03-08T13:17:53.299Z,8.10
2024-03-08T13:20:30.784Z,8.10
2024-03-08T13:23:03.245Z,8.10
2024-03-08T13:25:33.179Z,8.10
2024-03-08T13:28:02.282Z,8.10
2024-03-08T13:30:32.129Z,8.10
2024-03-08T13:33:00.903Z,8.10
2024-03-08T13:35:31.542Z,8.10
2024-03-08T13:38:00.222Z,8.10
2024-03-08T13:40:28.850Z,8.00
2024-03-08T13:42:59.740Z,8.10
2024-03-08T13:45:28.136Z,8.10
2024-03-08T13:47:57.107Z,8.10
2024-03-08T13:50:27.190Z,8.10
2024-03-08T13:52:56.673Z,8.10
2024-03-08T13:55:28.381Z,8.00
2024-03-08T13:58:00.733Z,8.10
2024-03-08T14:00:34.373Z,8.00
2024-03-08T14:03:03.085Z,8.00
2024-03-08T14:05:32.857Z,8.00
2024-03-08T14:08:02.337Z,8.00
2024-03-08T14:10:32.429Z,8.00
2024-03-08T14:13:03.973Z,7.90
2024-03-08T14:15:32.454Z,7.90
2024-03-08T14:18:00.912Z,7.90
2024-03-08T14:20:29.905Z,7.80
2024-03-08T14:22:58.735Z,7.80
2024-03-08T14:25:27.464Z,7.80
2024-03-08T14:27:59.543Z,7.90
2024-03-08T14:30:36.320Z,7.90
2024-03-08T14:33:06.817Z,7.90
2024-03-08T14:35:35.614Z,7.80
2024-03-08T14:38:04.589Z,7.80
2024-03-08T14:40:33.269Z,7.80
2024-03-08T14:43:05.449Z,7.80
2024-03-08T14:45:36.450Z,7.80
2024-03-08T14:48:06.107Z,7.80
2024-03-08T14:50:34.912Z,7.80
2024-03-08T14:53:07.826Z,7.70
2024-03-08T14:55:36.785Z,7.70
2024-03-08T14:58:05.897Z,7.70
2024-03-08T15:00:36.500Z,7.70
2024-03-08T15:03:08.110Z,7.60
2024-03-08T15:05:39.865Z,7.70
2024-03-08T15:08:12.870Z,7.60
2024-03-08T15:10:43.336Z,7.60
2024-03-08T15:13:22.965Z,7.50
2024-03-08T15:15:57.489Z,7.60
2024-03-08T15:18:32.242Z,7.60
2024-03-08T15:21:00.776Z,7.60
2024-03-08T15:23:29.306Z,7.50
2024-03-08T15:25:58.200Z,7.50
2024-03-08T15:28:35.274Z,7.60
2024-03-08T15:31:07.650Z,7.60
2024-03-08T15:33:42.841Z,7.50
2024-03-08T15:36:12.572Z,7.60
2024-03-08T15:38:41.076Z,7.60
2024-03-08T15:41:11.072Z,7.60
2024-03-08T15:43:40.874Z,7.60
2024-03-08T15:46:11.723Z,7.50
2024-03-08T15:48:43.493Z,7.50
2024-03-08T15:51:12.380Z,7.50
2024-03-08T15:53:41.603Z,7.50
2024-03-08T15:56:10.801Z,7.50
2024-03-08T15:58:39.648Z,7.50
2024-03-08T16:01:13.205Z,7.50
2024-03-08T16:03:41.380Z,7.40
2024-03-08T16:06:09.732Z,7.40
2024-03-08T16:08:40.867Z,7.50
2024-03-08T16:11:09.689Z,7.40
2024-03-08T16:13:40.224Z,7.40
2024-03-08T16:16:10.609Z,7.40
2024-03-08T16:18:39.528Z,7.40
2024-03-08T16:21:09.319Z,7.40
2024-03-08T16:23:39.102Z,7.40
2024-03-08T16:26:10.394Z,7.40
2024-03-08T16:28:45.476Z,7.40
2024-03-08T16:31:16.185Z,7.40
2024-03-08T16:33:45.784Z,7.30
2024-03-08T16:36:15.153Z,7.30
2024-03-08T16:38:46.495Z,7.40
2024-03-08T16:41:15.807Z,7.30
2024-03-08T16:43:46.053Z,7.40
2024-03-08T16:46:15.976Z,7.30
2024-03-08T16:48:44.637Z,7.30
2024-03-08T16:51:13.112Z,7.30
2024-03-08T16:53:43.234Z,7.30
2024-03-08T16:56:14.111Z,7.30
2024-03-08T16:58:44.524Z,7.30
2024-03-08T17:01:17.761Z,7.30
2024-03-08T17:03:56.489Z,7.30
2024-03-08T17:06:29.244Z,7.30
2024-03-08T17:08:57.905Z,7.30
2024-03-08T17:11:26.652Z,7.30
2024-03-08T17:13:55.136Z,7.20
2024-03-08T17:16:26.508Z,7.30
2024-03-08T17:18:55.803Z,7.20
2024-03-08T17:21:24.426Z,7.20
2024-03-08T17:23:53.188Z,7.30
2024-03-08T17:26:24.057Z,7.20
2024-03-08T17:28:52.576Z,7.20
2024-03-08T17:31:22.638Z,7.30
2024-03-08T17:33:52.565Z,7.30
2024-03-08T17:36:20.939Z,7.20
2024-03-08T17:38:51.909Z,7.20
2024-03-08T17:41:24.245Z,7.20
2024-03-08T17:43:53.393Z,7.20
2024-03-08T17:46:22.369Z,7.20
2024-03-08T17:48:57.333Z,7.20
2024-03-08T17:51:25.700Z,7.20
2024-03-08T17:53:54.099Z,7.20
2024-03-08T17:56:22.609Z,7.20
2024-03-08T17:58:52.469Z,7.20
2024-03-08T18:01:22.061Z,7.20
2024-03-08T18:03:50.832Z,7.20
2024-03-08T18:06:20.674Z,7.20
2024-03-08T18:08:49.021Z,7.20
2024-03-08T18:11:17.593Z,7.20
2024-03-08T18:13:48.536Z,7.20
2024-03-08T18:16:17.556Z,7.20
2024-03-08T18:18:48.697Z,7.20
2024-03-08T18:21:17.210Z,7.20
2024-03-08T18:23:47.082Z,7.20
2024-03-08T18:26:15.765Z,7.10
2024-03-08T18:28:49.809Z,7.10
2024-03-08T18:31:19.111Z,7.10
2024-03-08T18:33:50.041Z,7.10
2024-03-08T18:36:19.569Z,7.10
2024-03-08T18:38:50.203Z,7.10
2024-03-08T18:41:21.714Z,7.20
2024-03-08T18:43:51.603Z,7.10
2024-03-08T18:46:24.684Z,7.20
2024-03-08T18:48:53.445Z,7.10
2024-03-08T18:51:22.479Z,7.10
2024-03-08T18:53:53.400Z,7.10
2024-03-08T18:56:22.818Z,7.20
2024-03-08T18:58:51.808Z,7.10
2024-03-08T19:01:26.930Z,7.10
2024-03-08T19:03:56.625Z,7.10
2024-03-08T19:06:28.796Z,7.10
2024-03-08T19:08:59.855Z,7.10
2024-03-08T19:11:32.141Z,7.10
2024-03-08T19:14:01.235Z,7.10
2024-03-08T19:16:31.762Z,7.00
2024-03-08T19:19:01.481Z,7.00
2024-03-08T19:21:33.185Z,7.00
2024-03-08T19:24:04.853Z,7.00
2024-03-08T19:26:34.223Z,7.00
2024-03-08T19:29:07.730Z,7.10
2024-03-08T19:31:38.394Z,7.00
2024-03-08T19:34:11.810Z,7.00
2024-03-08T19:36:41.034Z,7.00
2024-03-08T19:39:17.978Z,7.00
2024-03-08T19:41:48.265Z,7.00
2024-03-08T19:44:17.692Z,7.00
2024-03-08T19:46:48.649Z,7.00
2024-03-08T19:49:18.438Z,7.00
2024-03-08T19:51:47.317Z,7.00
2024-03-08T19:54:17.068Z,6.90
2024-03-08T19:56:49.098Z,7.00
2024-03-08T19:59:18.247Z,7.00
2024-03-08T20:01:47.208Z,7.00
2024-03-08T20:04:17.173Z,7.00
2024-03-08T20:06:46.911Z,7.00
2024-03-08T20:09:22.834Z,7.00
2024-03-08T20:11:51.376Z,7.00
2024-03-08T20:14:21.639Z,7.00
2024-03-08T20:16:51.973Z,7.00
2024-03-08T20:19:23.238Z,7.00
2024-03-08T20:21:55.592Z,6.90
2024-03-08T20:24:25.945Z,6.90
2024-03-08T20:26:54.776Z,6.90
2024-03-08T20:29:23.864Z,6.90
2024-03-08T20:31:54.682Z,6.90
2024-03-08T20:34:24.919Z,6.90
2024-03-08T20:36:53.745Z,6.90
2024-03-08T20:39:22.491Z,6.90
2024-03-08T20:41:55.750Z,6.90
2024-03-08T20:44:25.658Z,6.90
2024-03-08T20:46:54.360Z,6.90
2024-03-08T20:49:23.241Z,6.90
2024-03-08T20:51:52.132Z,6.90
2024-03-08T20:54:20.863Z,6.90
2024-03-08T20:56:49.367Z,6.90
2024-03-08T20:59:20.548Z,6.90
2024-03-08T21:01:49.385Z,6.90
2024-03-08T21:04:18.759Z,6.90
2024-03-08T21:06:47.374Z,6.90
2024-03-08T21:09:17.497Z,6.90
2024-03-08T21:11:46.217Z,6.90
2024-03-08T21:14:15.600Z,6.90
2024-03-08T21:16:45.353Z,6.90
2024-03-08T21:19:14.533Z,6.90
2024-03-08T21:21:43.398Z,6.80
2024-03-08T21:24:14.293Z,6.80
2024-03-08T21:26:46.072Z,6.80
2024-03-08T21:29:16.843Z,6.80
2024-03-08T21:31:48.496Z,6.80
2024-03-08T21:34:17.185Z,6.80
2024-03-08T21:36:46.153Z,6.80
2024-03-08T21:39:17.337Z,6.80
2024-03-08T21:41:58.353Z,6.80
2024-03-08T21:44:27.571Z,6.80
2024-03-08T21:46:58.786Z,6.80
2024-03-08T21:49:28.133Z,6.80
2024-03-08T21:51:56.734Z,6.80
2024-03-08T21:54:27.090Z,6.80
2024-03-08T21:56:55.665Z,6.80
2024-03-08T21:59:24.138Z,6.80
2024-03-08T22:01:56.383Z,6.80
2024-03-08T22:04:30.151Z,6.80
2024-03-08T22:06:58.818Z,6.80
2024-03-08T22:09:27.332Z,6.80
2024-03-08T22:11:58.871Z,6.80
2024-03-08T22:14:28.849Z,6.80
2024-03-08T22:16:57.465Z,6.80
2024-03-08T22:19:29.936Z,6.80
2024-03-08T22:21:58.511Z,6.80
2024-03-08T22:24:27.013Z,6.80
2024-03-08T22:27:01.783Z,6.80
2024-03-08T22:29:30.332Z,6.80
2024-03-08T22:32:01.864Z,6.70
2024-03-08T22:34:31.863Z,6.70
2024-03-08T22:37:03.551Z,6.70
2024-03-08T22:39:35.237Z,6.80
2024-03-08T22:42:06.970Z,6.70
2024-03-08T22:44:41.927Z,6.70
2024-03-08T22:47:11.450Z,6.70
2024-03-08T22:49:42.341Z,6.70
2024-03-08T22:52:12.037Z,6.70
2024-03-08T22:54:43.894Z,6.70
2024-03-08T22:57:23.123Z,6.70
2024-03-08T22:59:54.837Z,6.70
2024-03-08T23:02:23.468Z,6.70
2024-03-08T23:04:58.937Z,6.60
2024-03-08T23:07:29.217Z,6.60
2024-03-08T23:10:00.502Z,6.60
2024-03-08T23:12:30.332Z,6.70
2024-03-08T23:14:59.440Z,6.70
2024-03-08T23:17:30.758Z,6.70
2024-03-08T23:20:07.219Z,6.60
2024-03-08T23:22:35.692Z,6.60
2024-03-08T23:25:11.168Z,6.70
2024-03-08T23:27:41.428Z,6.70
2024-03-08T23:30:13.041Z,6.60
2024-03-08T23:32:43.323Z,6.60
2024-03-08T23:35:17.866Z,6.60
2024-03-08T23:37:50.648Z,6.60
2024-03-08T23:40:22.480Z,6.60
2024-03-08T23:42:55.114Z,6.60
2024-03-08T23:45:23.981Z,6.60
2024-03-08T23:47:55.319Z,6.50
2024-03-08T23:50:31.570Z,6.50
2024-03-08T23:53:09.586Z,6.60
2024-03-08T23:55:41.894Z,6.60
2024-03-08T23:58:13.700Z,6.60
